sensor_id;sensor_type;location;lat;lon;timestamp;pressure;altitude;pressure_sealevel;temperature;humidity
77452;BME280;66537;52.370;4.832;2023-04-06T00:00:34;101868.94;;;6.81;55.78
77452;BME280;66537;52.370;4.832;2023-04-06T00:02:59;101872.38;;;6.86;55.72
77452;BME280;66537;52.370;4.832;2023-04-06T00:05:25;101868.06;;;6.81;55.71
77452;BME280;66537;52.370;4.832;2023-04-06T00:07:51;101862.94;;;6.81;55.03
77452;BME280;66537;52.370;4.832;2023-04-06T00:10:17;101865.53;;;6.94;55.11
77452;BME280;66537;52.370;4.832;2023-04-06T00:12:43;101861.25;;;6.90;54.76
77452;BME280;66537;52.370;4.832;2023-04-06T00:15:08;101853.53;;;7.01;55.08
77452;BME280;66537;52.370;4.832;2023-04-06T00:17:34;101861.25;;;6.99;54.63
77452;BME280;66537;52.370;4.832;2023-04-06T00:20:00;101856.13;;;6.96;54.67
77452;BME280;66537;52.370;4.832;2023-04-06T00:22:25;101843.22;;;6.87;54.93
77452;BME280;66537;52.370;4.832;2023-04-06T00:24:50;101844.94;;;6.84;54.05
77452;BME280;66537;52.370;4.832;2023-04-06T00:27:16;101849.22;;;6.86;53.56
77452;BME280;66537;52.370;4.832;2023-04-06T00:29:43;101834.66;;;6.87;54.06
77452;BME280;66537;52.370;4.832;2023-04-06T00:32:09;101839.78;;;6.90;53.64
77452;BME280;66537;52.370;4.832;2023-04-06T00:34:35;101839.81;;;6.87;53.68
77452;BME280;66537;52.370;4.832;2023-04-06T00:37:00;101836.41;;;7.00;54.22
77452;BME280;66537;52.370;4.832;2023-04-06T00:39:25;101832.09;;;6.97;54.49
77452;BME280;66537;52.370;4.832;2023-04-06T00:41:51;101825.25;;;6.99;53.79
77452;BME280;66537;52.370;4.832;2023-04-06T00:44:18;101821.81;;;7.09;53.40
77452;BME280;66537;52.370;4.832;2023-04-06T00:46:44;101815.84;;;7.04;52.96
77452;BME280;66537;52.370;4.832;2023-04-06T00:49:10;101821.81;;;7.05;52.18
77452;BME280;66537;52.370;4.832;2023-04-06T00:51:35;101808.94;;;7.12;52.55
77452;BME280;66537;52.370;4.832;2023-04-06T00:54:01;101808.09;;;7.09;51.73
77452;BME280;66537;52.370;4.832;2023-04-06T00:56:26;101811.53;;;7.23;51.80
77452;BME280;66537;52.370;4.832;2023-04-06T00:58:52;101809.84;;;7.10;52.06
77452;BME280;66537;52.370;4.832;2023-04-06T01:01:17;101800.38;;;7.16;51.38
77452;BME280;66537;52.370;4.832;2023-04-06T01:03:43;101791.81;;;7.17;52.03
77452;BME280;66537;52.370;4.832;2023-04-06T01:06:09;101789.22;;;7.14;51.98
77452;BME280;66537;52.370;4.832;2023-04-06T01:08:35;101793.53;;;7.15;52.42
77452;BME280;66537;52.370;4.832;2023-04-06T01:11:01;101786.66;;;7.19;51.69
77452;BME280;66537;52.370;4.832;2023-04-06T01:13:26;101785.78;;;7.12;51.95
77452;BME280;66537;52.370;4.832;2023-04-06T01:15:52;101786.69;;;7.16;51.25
77452;BME280;66537;52.370;4.832;2023-04-06T01:18:17;101784.09;;;7.05;52.31
77452;BME280;66537;52.370;4.832;2023-04-06T01:20:43;101776.38;;;6.96;52.05
77452;BME280;66537;52.370;4.832;2023-04-06T01:23:08;101774.66;;;7.07;52.67
77452;BME280;66537;52.370;4.832;2023-04-06T01:25:33;101773.78;;;6.98;52.00
77452;BME280;66537;52.370;4.832;2023-04-06T01:27:59;101776.38;;;6.96;52.69
77452;BME280;66537;52.370;4.832;2023-04-06T01:30:25;101773.78;;;6.99;51.94
77452;BME280;66537;52.370;4.832;2023-04-06T01:32:50;101770.38;;;6.94;52.06
77452;BME280;66537;52.370;4.832;2023-04-06T01:35:17;101764.34;;;6.92;51.75
77452;BME280;66537;52.370;4.832;2023-04-06T01:37:43;101760.94;;;6.90;52.11
77452;BME280;66537;52.370;4.832;2023-04-06T01:40:08;101754.91;;;6.84;52.06
77452;BME280;66537;52.370;4.832;2023-04-06T01:42:34;101750.63;;;6.75;51.89
77452;BME280;66537;52.370;4.832;2023-04-06T01:44:59;101751.47;;;6.83;52.63
77452;BME280;66537;52.370;4.832;2023-04-06T01:47:25;101741.19;;;6.89;52.16
77452;BME280;66537;52.370;4.832;2023-04-06T01:49:50;101745.47;;;6.93;52.12
77452;BME280;66537;52.370;4.832;2023-04-06T01:52:16;101751.44;;;6.70;51.92
77452;BME280;66537;52.370;4.832;2023-04-06T01:54:41;101744.63;;;6.85;51.67
77452;BME280;66537;52.370;4.832;2023-04-06T01:57:06;101736.06;;;6.86;52.22
77452;BME280;66537;52.370;4.832;2023-04-06T01:59:32;101724.91;;;6.84;52.04
77452;BME280;66537;52.370;4.832;2023-04-06T02:01:57;101736.91;;;6.90;50.65
77452;BME280;66537;52.370;4.832;2023-04-06T02:04:22;101732.63;;;6.84;51.56
77452;BME280;66537;52.370;4.832;2023-04-06T02:06:47;101724.06;;;6.96;51.54
77452;BME280;66537;52.370;4.832;2023-04-06T02:09:14;101724.91;;;6.81;50.90
77452;BME280;66537;52.370;4.832;2023-04-06T02:11:39;101724.06;;;6.87;50.11
77452;BME280;66537;52.370;4.832;2023-04-06T02:14:05;101724.06;;;7.00;50.29
77452;BME280;66537;52.370;4.832;2023-04-06T02:16:30;101719.78;;;6.98;50.79
77452;BME280;66537;52.370;4.832;2023-04-06T02:18:55;101711.19;;;6.81;50.50
77452;BME280;66537;52.370;4.832;2023-04-06T02:21:21;101712.91;;;6.89;50.34
77452;BME280;66537;52.370;4.832;2023-04-06T02:23:46;101712.03;;;6.93;50.22
77452;BME280;66537;52.370;4.832;2023-04-06T02:26:13;101708.63;;;6.88;50.38
77452;BME280;66537;52.370;4.832;2023-04-06T02:28:38;101707.75;;;6.89;50.13
77452;BME280;66537;52.370;4.832;2023-04-06T02:31:03;101708.63;;;6.87;50.21
77452;BME280;66537;52.370;4.832;2023-04-06T02:33:29;101702.63;;;6.88;50.01
77452;BME280;66537;52.370;4.832;2023-04-06T02:35:54;101697.47;;;6.97;49.54
77452;BME280;66537;52.370;4.832;2023-04-06T02:38:20;101697.47;;;6.89;49.95
77452;BME280;66537;52.370;4.832;2023-04-06T02:40:45;101688.06;;;6.93;50.51
77452;BME280;66537;52.370;4.832;2023-04-06T02:43:10;101689.78;;;6.85;50.25
77452;BME280;66537;52.370;4.832;2023-04-06T02:45:36;101697.47;;;6.92;50.68
77452;BME280;66537;52.370;4.832;2023-04-06T02:48:01;101691.47;;;6.96;50.68
77452;BME280;66537;52.370;4.832;2023-04-06T02:50:26;101689.75;;;6.76;50.75
77452;BME280;66537;52.370;4.832;2023-04-06T02:52:52;101680.31;;;6.82;51.04
77452;BME280;66537;52.370;4.832;2023-04-06T02:55:18;101677.75;;;6.84;51.18
77452;BME280;66537;52.370;4.832;2023-04-06T02:57:44;101671.72;;;6.97;52.14
77452;BME280;66537;52.370;4.832;2023-04-06T03:00:11;101667.47;;;7.06;51.41
77452;BME280;66537;52.370;4.832;2023-04-06T03:02:36;101666.59;;;7.06;51.25
77452;BME280;66537;52.370;4.832;2023-04-06T03:05:02;101658.00;;;7.11;50.79
77452;BME280;66537;52.370;4.832;2023-04-06T03:07:28;101660.59;;;7.01;50.98
77452;BME280;66537;52.370;4.832;2023-04-06T03:09:54;101664.88;;;7.02;51.01
77452;BME280;66537;52.370;4.832;2023-04-06T03:12:20;101658.03;;;7.04;51.11
77452;BME280;66537;52.370;4.832;2023-04-06T03:14:45;101652.88;;;7.05;50.95
77452;BME280;66537;52.370;4.832;2023-04-06T03:17:10;101657.16;;;6.99;50.72
77452;BME280;66537;52.370;4.832;2023-04-06T03:19:36;101656.31;;;7.00;51.21
77452;BME280;66537;52.370;4.832;2023-04-06T03:22:01;101652.88;;;7.04;51.20
77452;BME280;66537;52.370;4.832;2023-04-06T03:24:27;101651.97;;;7.18;51.36
77452;BME280;66537;52.370;4.832;2023-04-06T03:26:52;101648.56;;;7.03;50.98
77452;BME280;66537;52.370;4.832;2023-04-06T03:29:17;101645.16;;;7.02;51.18
77452;BME280;66537;52.370;4.832;2023-04-06T03:31:43;101643.44;;;6.89;51.11
77452;BME280;66537;52.370;4.832;2023-04-06T03:34:08;101634.03;;;6.94;51.61
77452;BME280;66537;52.370;4.832;2023-04-06T03:36:34;101632.31;;;6.90;51.14
77452;BME280;66537;52.370;4.832;2023-04-06T03:38:59;101634.88;;;6.84;51.05
77452;BME280;66537;52.370;4.832;2023-04-06T03:41:25;101635.72;;;6.83;52.04
77452;BME280;66537;52.370;4.832;2023-04-06T03:43:50;101627.19;;;6.90;51.88
77452;BME280;66537;52.370;4.832;2023-04-06T03:46:16;101620.31;;;6.86;51.32
77452;BME280;66537;52.370;4.832;2023-04-06T03:48:41;101631.44;;;7.00;51.96
77452;BME280;66537;52.370;4.832;2023-04-06T03:51:06;101625.44;;;7.07;51.21
77452;BME280;66537;52.370;4.832;2023-04-06T03:53:32;101631.44;;;6.90;51.39
77452;BME280;66537;52.370;4.832;2023-04-06T03:55:57;101626.31;;;6.94;51.60
77452;BME280;66537;52.370;4.832;2023-04-06T03:58:22;101625.47;;;6.91;52.35
77452;BME280;66537;52.370;4.832;2023-04-06T04:00:48;101625.44;;;6.95;52.60
77452;BME280;66537;52.370;4.832;2023-04-06T04:03:13;101619.44;;;7.04;51.63
77452;BME280;66537;52.370;4.832;2023-04-06T04:05:38;101611.72;;;7.04;51.42
77452;BME280;66537;52.370;4.832;2023-04-06T04:08:04;101612.56;;;7.06;51.16
77452;BME280;66537;52.370;4.832;2023-04-06T04:10:29;101605.69;;;7.11;51.83
77452;BME280;66537;52.370;4.832;2023-04-06T04:12:55;101615.97;;;7.17;52.04
77452;BME280;66537;52.370;4.832;2023-04-06T04:15:20;101611.72;;;7.05;51.68
77452;BME280;66537;52.370;4.832;2023-04-06T04:17:45;101611.75;;;6.95;52.19
77452;BME280;66537;52.370;4.832;2023-04-06T04:20:14;101610.00;;;7.01;52.76
77452;BME280;66537;52.370;4.832;2023-04-06T04:22:40;101610.00;;;7.06;52.76
77452;BME280;66537;52.370;4.832;2023-04-06T04:25:05;101605.72;;;6.90;52.47
77452;BME280;66537;52.370;4.832;2023-04-06T04:27:31;101610.00;;;7.04;51.95
77452;BME280;66537;52.370;4.832;2023-04-06T04:29:56;101608.25;;;7.15;52.51
77452;BME280;66537;52.370;4.832;2023-04-06T04:32:21;101598.84;;;7.01;52.45
77452;BME280;66537;52.370;4.832;2023-04-06T04:34:47;101603.16;;;6.96;52.41
77452;BME280;66537;52.370;4.832;2023-04-06T04:37:12;101603.13;;;6.99;52.29
77452;BME280;66537;52.370;4.832;2023-04-06T04:39:37;101598.00;;;6.99;52.70
77452;BME280;66537;52.370;4.832;2023-04-06T04:42:03;101604.03;;;6.86;53.00
77452;BME280;66537;52.370;4.832;2023-04-06T04:44:28;101596.31;;;6.86;52.57
77452;BME280;66537;52.370;4.832;2023-04-06T04:46:53;101600.56;;;7.02;52.57
77452;BME280;66537;52.370;4.832;2023-04-06T04:49:19;101590.28;;;6.99;53.14
77452;BME280;66537;52.370;4.832;2023-04-06T04:51:44;101592.00;;;7.00;53.27
77452;BME280;66537;52.370;4.832;2023-04-06T04:54:09;101592.88;;;6.90;53.39
77452;BME280;66537;52.370;4.832;2023-04-06T04:56:35;101592.88;;;6.87;53.43
77452;BME280;66537;52.370;4.832;2023-04-06T04:59:00;101596.31;;;6.86;52.58
77452;BME280;66537;52.370;4.832;2023-04-06T05:01:25;101592.03;;;6.86;53.73
77452;BME280;66537;52.370;4.832;2023-04-06T05:03:51;101592.03;;;6.79;53.51
77452;BME280;66537;52.370;4.832;2023-04-06T05:06:16;101592.03;;;6.86;53.89
77452;BME280;66537;52.370;4.832;2023-04-06T05:08:42;101583.47;;;6.83;53.82
77452;BME280;66537;52.370;4.832;2023-04-06T05:11:08;101589.44;;;6.88;54.07
77452;BME280;66537;52.370;4.832;2023-04-06T05:13:33;101592.03;;;6.82;54.08
77452;BME280;66537;52.370;4.832;2023-04-06T05:15:59;101592.91;;;6.79;54.36
77452;BME280;66537;52.370;4.832;2023-04-06T05:18:25;101596.28;;;6.93;54.19
77452;BME280;66537;52.370;4.832;2023-04-06T05:20:50;101596.31;;;6.77;54.33
77452;BME280;66537;52.370;4.832;2023-04-06T05:23:16;101589.47;;;6.62;54.89
77452;BME280;66537;52.370;4.832;2023-04-06T05:25:42;101599.75;;;6.74;55.03
77452;BME280;66537;52.370;4.832;2023-04-06T05:28:07;101589.47;;;6.68;55.53
77452;BME280;66537;52.370;4.832;2023-04-06T05:30:32;101592.91;;;6.61;55.57
77452;BME280;66537;52.370;4.832;2023-04-06T05:32:58;101589.47;;;6.74;55.69
77452;BME280;66537;52.370;4.832;2023-04-06T05:35:23;101584.34;;;6.71;55.35
77452;BME280;66537;52.370;4.832;2023-04-06T05:37:49;101584.34;;;6.67;55.66
77452;BME280;66537;52.370;4.832;2023-04-06T05:40:15;101591.19;;;6.51;56.30
77452;BME280;66537;52.370;4.832;2023-04-06T05:42:41;101587.75;;;6.51;56.30
77452;BME280;66537;52.370;4.832;2023-04-06T05:45:08;101591.19;;;6.66;56.30
77452;BME280;66537;52.370;4.832;2023-04-06T05:47:34;101588.63;;;6.59;56.16
77452;BME280;66537;52.370;4.832;2023-04-06T05:50:00;101592.91;;;6.55;56.52
77452;BME280;66537;52.370;4.832;2023-04-06T05:52:25;101581.75;;;6.61;56.54
77452;BME280;66537;52.370;4.832;2023-04-06T05:54:51;101586.91;;;6.73;56.58
77452;BME280;66537;52.370;4.832;2023-04-06T05:57:17;101586.88;;;6.80;56.19
77452;BME280;66537;52.370;4.832;2023-04-06T05:59:42;101584.31;;;6.85;56.23
77452;BME280;66537;52.370;4.832;2023-04-06T06:02:08;101588.59;;;6.83;55.98
77452;BME280;66537;52.370;4.832;2023-04-06T06:04:33;101583.44;;;6.90;56.61
77452;BME280;66537;52.370;4.832;2023-04-06T06:06:58;101591.97;;;7.09;56.21
77452;BME280;66537;52.370;4.832;2023-04-06T06:09:24;101585.97;;;7.11;55.82
77452;BME280;66537;52.370;4.832;2023-04-06T06:11:49;101575.69;;;7.10;56.34
77452;BME280;66537;52.370;4.832;2023-04-06T06:14:15;101591.97;;;7.03;56.12
77452;BME280;66537;52.370;4.832;2023-04-06T06:16:40;101592.00;;;7.00;56.96
77452;BME280;66537;52.370;4.832;2023-04-06T06:19:06;101591.09;;;7.19;56.99
77452;BME280;66537;52.370;4.832;2023-04-06T06:21:31;101589.38;;;7.15;56.69
77452;BME280;66537;52.370;4.832;2023-04-06T06:23:56;101593.69;;;7.16;57.04
77452;BME280;66537;52.370;4.832;2023-04-06T06:26:22;101582.53;;;7.09;56.69
77452;BME280;66537;52.370;4.832;2023-04-06T06:28:47;101586.03;;;6.95;57.86
77452;BME280;66537;52.370;4.832;2023-04-06T06:31:12;101585.13;;;7.05;57.66
77452;BME280;66537;52.370;4.832;2023-04-06T06:33:38;101591.09;;;7.08;57.67
77452;BME280;66537;52.370;4.832;2023-04-06T06:36:03;101583.41;;;7.05;57.78
77452;BME280;66537;52.370;4.832;2023-04-06T06:38:28;101592.78;;;7.27;57.65
77452;BME280;66537;52.370;4.832;2023-04-06T06:40:54;101589.34;;;7.22;58.09
77452;BME280;66537;52.370;4.832;2023-04-06T06:43:19;101589.28;;;7.47;57.51
77452;BME280;66537;52.370;4.832;2023-04-06T06:45:45;101583.25;;;7.52;57.56
77452;BME280;66537;52.370;4.832;2023-04-06T06:48:10;101589.28;;;7.44;57.63
77452;BME280;66537;52.370;4.832;2023-04-06T06:50:36;101576.41;;;7.47;57.68
77452;BME280;66537;52.370;4.832;2023-04-06T06:53:01;101572.94;;;7.57;57.70
77452;BME280;66537;52.370;4.832;2023-04-06T06:55:30;101572.09;;;7.56;57.74
77452;BME280;66537;52.370;4.832;2023-04-06T06:57:55;101567.81;;;7.49;58.04
77452;BME280;66537;52.370;4.832;2023-04-06T07:00:20;101579.00;;;7.47;57.83
77452;BME280;66537;52.370;4.832;2023-04-06T07:02:47;101570.34;;;7.55;58.37
77452;BME280;66537;52.370;4.832;2023-04-06T07:05:13;101565.13;;;7.69;58.03
77452;BME280;66537;52.370;4.832;2023-04-06T07:07:38;101562.69;;;7.40;59.04
77452;BME280;66537;52.370;4.832;2023-04-06T07:10:04;101567.81;;;7.49;58.94
77452;BME280;66537;52.370;4.832;2023-04-06T07:12:30;101560.84;;;7.69;58.29
77452;BME280;66537;52.370;4.832;2023-04-06T07:14:55;101551.38;;;7.76;58.49
77452;BME280;66537;52.370;4.832;2023-04-06T07:17:20;101558.09;;;7.98;58.47
77452;BME280;66537;52.370;4.832;2023-04-06T07:19:46;101559.00;;;7.95;58.19
77452;BME280;66537;52.370;4.832;2023-04-06T07:22:12;101553.84;;;7.95;58.62
77452;BME280;66537;52.370;4.832;2023-04-06T07:24:37;101552.00;;;8.08;57.90
77452;BME280;66537;52.370;4.832;2023-04-06T07:27:03;101559.69;;;8.14;58.24
77452;BME280;66537;52.370;4.832;2023-04-06T07:29:28;101557.09;;;8.18;58.13
77452;BME280;66537;52.370;4.832;2023-04-06T07:31:54;101554.44;;;8.31;57.64
77452;BME280;66537;52.370;4.832;2023-04-06T07:34:20;101546.59;;;8.44;57.81
77452;BME280;66537;52.370;4.832;2023-04-06T07:36:46;101555.28;;;8.36;57.32
77452;BME280;66537;52.370;4.832;2023-04-06T07:39:11;101548.19;;;8.59;57.76
77452;BME280;66537;52.370;4.832;2023-04-06T07:41:37;101545.72;;;8.47;57.50
77452;BME280;66537;52.370;4.832;2023-04-06T07:44:03;101551.63;;;8.61;57.13
77452;BME280;66537;52.370;4.832;2023-04-06T07:46:29;101545.63;;;8.59;57.10
77452;BME280;66537;52.370;4.832;2023-04-06T07:48:56;101551.66;;;8.55;57.46
77452;BME280;66537;52.370;4.832;2023-04-06T07:51:21;101548.09;;;8.71;57.10
77452;BME280;66537;52.370;4.832;2023-04-06T07:53:47;101546.28;;;8.77;57.19
77452;BME280;66537;52.370;4.832;2023-04-06T07:56:12;101549.59;;;8.88;57.04
77452;BME280;66537;52.370;4.832;2023-04-06T07:58:37;101554.63;;;9.00;57.25
77452;BME280;66537;52.370;4.832;2023-04-06T08:01:03;101552.03;;;9.03;57.28
77452;BME280;66537;52.370;4.832;2023-04-06T08:03:28;101549.41;;;9.06;57.25
77452;BME280;66537;52.370;4.832;2023-04-06T08:05:53;101548.38;;;9.20;57.43
77452;BME280;66537;52.370;4.832;2023-04-06T08:08:19;101554.28;;;9.29;57.07
77452;BME280;66537;52.370;4.832;2023-04-06T08:10:46;101542.09;;;9.42;57.46
77452;BME280;66537;52.370;4.832;2023-04-06T08:13:12;101540.97;;;9.62;56.79
77452;BME280;66537;52.370;4.832;2023-04-06T08:15:37;101540.97;;;9.62;57.16
77452;BME280;66537;52.370;4.832;2023-04-06T08:18:02;101542.69;;;9.60;56.74
77452;BME280;66537;52.370;4.832;2023-04-06T08:20:28;101543.44;;;9.71;56.32
77452;BME280;66537;52.370;4.832;2023-04-06T08:22:53;101544.41;;;9.63;57.04
77452;BME280;66537;52.370;4.832;2023-04-06T08:25:18;101538.25;;;9.70;57.29
77452;BME280;66537;52.370;4.832;2023-04-06T08:27:44;101546.53;;;9.93;56.90
77452;BME280;66537;52.370;4.832;2023-04-06T08:30:09;101546.94;;;10.25;56.02
77452;BME280;66537;52.370;4.832;2023-04-06T08:32:35;101545.94;;;10.34;56.16
77452;BME280;66537;52.370;4.832;2023-04-06T08:35:00;101547.69;;;10.32;56.17
77452;BME280;66537;52.370;4.832;2023-04-06T08:37:26;101542.69;;;10.23;56.68
77452;BME280;66537;52.370;4.832;2023-04-06T08:39:51;101542.41;;;10.38;55.86
77452;BME280;66537;52.370;4.832;2023-04-06T08:42:20;101538.16;;;10.35;56.50
77452;BME280;66537;52.370;4.832;2023-04-06T08:44:48;101538.56;;;10.11;57.65
77452;BME280;66537;52.370;4.832;2023-04-06T08:47:13;101548.06;;;10.08;57.60
77452;BME280;66537;52.370;4.832;2023-04-06T08:49:40;101535.91;;;10.16;58.24
77452;BME280;66537;52.370;4.832;2023-04-06T08:52:06;101544.66;;;10.06;58.46
77452;BME280;66537;52.370;4.832;2023-04-06T08:54:33;101530.59;;;10.23;58.39
77452;BME280;66537;52.370;4.832;2023-04-06T08:56:58;101542.91;;;10.04;59.68
77452;BME280;66537;52.370;4.832;2023-04-06T08:59:25;101538.69;;;9.99;61.36
77452;BME280;66537;52.370;4.832;2023-04-06T09:01:51;101543.75;;;10.10;61.35
77452;BME280;66537;52.370;4.832;2023-04-06T09:04:16;101544.03;;;9.88;61.77
77452;BME280;66537;52.370;4.832;2023-04-06T09:06:42;101544.00;;;9.90;62.59
77452;BME280;66537;52.370;4.832;2023-04-06T09:09:08;101547.53;;;9.86;62.76
77452;BME280;66537;52.370;4.832;2023-04-06T09:11:49;101544.25;;;9.72;63.64
77452;BME280;66537;52.370;4.832;2023-04-06T09:14:15;101541.88;;;9.60;63.42
77452;BME280;66537;52.370;4.832;2023-04-06T09:16:43;101549.50;;;9.67;62.67
77452;BME280;66537;52.370;4.832;2023-04-06T09:19:11;101547.69;;;9.74;63.75
77452;BME280;66537;52.370;4.832;2023-04-06T09:21:37;101547.66;;;9.77;65.40
77452;BME280;66537;52.370;4.832;2023-04-06T09:24:03;101551.25;;;9.67;65.03
77452;BME280;66537;52.370;4.832;2023-04-06T09:26:29;101554.88;;;9.51;66.94
77452;BME280;66537;52.370;4.832;2023-04-06T09:28:56;101550.84;;;9.32;67.58
77452;BME280;66537;52.370;4.832;2023-04-06T09:31:29;101558.19;;;8.90;69.75
77452;BME280;66537;52.370;4.832;2023-04-06T09:33:55;101561.44;;;9.06;69.00
77452;BME280;66537;52.370;4.832;2023-04-06T09:36:34;101558.91;;;9.04;68.58
77452;BME280;66537;52.370;4.832;2023-04-06T09:39:04;101554.72;;;8.96;69.97
77452;BME280;66537;52.370;4.832;2023-04-06T09:41:34;101553.97;;;8.82;71.24
77452;BME280;66537;52.370;4.832;2023-04-06T09:44:04;101553.03;;;8.89;72.29
77452;BME280;66537;52.370;4.832;2023-04-06T09:46:32;101552.19;;;8.88;72.09
77452;BME280;66537;52.370;4.832;2023-04-06T09:49:00;101545.03;;;9.13;71.68
77452;BME280;66537;52.370;4.832;2023-04-06T09:51:27;101549.16;;;9.28;73.24
77452;BME280;66537;52.370;4.832;2023-04-06T09:53:55;101537.22;;;9.18;72.42
77452;BME280;66537;52.370;4.832;2023-04-06T09:56:27;101541.53;;;9.19;72.65
77452;BME280;66537;52.370;4.832;2023-04-06T09:58:57;101545.03;;;9.15;73.32
77452;BME280;66537;52.370;4.832;2023-04-06T10:01:28;101535.63;;;9.09;72.17
77452;BME280;66537;52.370;4.832;2023-04-06T10:06:23;101541.16;;;9.47;72.71
77452;BME280;66537;52.370;4.832;2023-04-06T10:08:51;101544.63;;;9.45;71.12
77452;BME280;66537;52.370;4.832;2023-04-06T10:11:19;101543.84;;;9.40;71.81
77452;BME280;66537;52.370;4.832;2023-04-06T10:13:47;101527.72;;;9.23;73.34
77452;BME280;66537;52.370;4.832;2023-04-06T10:16:14;101533.63;;;9.32;73.53
77452;BME280;66537;52.370;4.832;2023-04-06T10:18:44;101541.22;;;9.44;72.33
77452;BME280;66537;52.370;4.832;2023-04-06T10:21:17;101526.09;;;9.14;72.73
77452;BME280;66537;52.370;4.832;2023-04-06T10:23:48;101528.47;;;9.32;72.87
77452;BME280;66537;52.370;4.832;2023-04-06T10:26:15;101529.19;;;9.42;73.49
77452;BME280;66537;52.370;4.832;2023-04-06T10:28:43;101518.63;;;9.58;72.41
77452;BME280;66537;52.370;4.832;2023-04-06T10:31:08;101524.97;;;9.36;73.10
77452;BME280;66537;52.370;4.832;2023-04-06T10:33:34;101522.31;;;9.41;74.63
77452;BME280;66537;52.370;4.832;2023-04-06T10:36:13;101520.66;;;9.35;72.74
77452;BME280;66537;52.370;4.832;2023-04-06T10:38:39;101511.13;;;9.40;72.98
77452;BME280;66537;52.370;4.832;2023-04-06T10:41:06;101522.47;;;9.29;73.26
77452;BME280;66537;52.370;4.832;2023-04-06T10:43:36;101514.00;;;9.19;72.93
77452;BME280;66537;52.370;4.832;2023-04-06T10:46:02;101510.59;;;9.17;73.51
77452;BME280;66537;52.370;4.832;2023-04-06T10:51:08;101503.75;;;9.10;74.58
77452;BME280;66537;52.370;4.832;2023-04-06T10:53:34;101500.41;;;9.02;73.87
77452;BME280;66537;52.370;4.832;2023-04-06T10:55:59;101503.78;;;9.08;72.66
77452;BME280;66537;52.370;4.832;2023-04-06T10:58:27;101500.34;;;9.08;74.48
77452;BME280;66537;52.370;4.832;2023-04-06T11:00:53;101502.91;;;9.11;74.35
77452;BME280;66537;52.370;4.832;2023-04-06T11:03:19;101497.88;;;8.99;75.35
77452;BME280;66537;52.370;4.832;2023-04-06T11:05:45;101503.25;;;8.79;74.25
77452;BME280;66537;52.370;4.832;2023-04-06T11:08:21;101493.00;;;8.73;74.96
77452;BME280;66537;52.370;4.832;2023-04-06T11:10:46;101488.59;;;8.84;75.83
77452;BME280;66537;52.370;4.832;2023-04-06T11:13:12;101489.41;;;8.89;75.61
77452;BME280;66537;52.370;4.832;2023-04-06T11:15:37;101490.31;;;8.84;77.06
77452;BME280;66537;52.370;4.832;2023-04-06T11:18:05;101489.53;;;8.77;75.48
77452;BME280;66537;52.370;4.832;2023-04-06T11:20:31;101483.56;;;8.74;77.15
77452;BME280;66537;52.370;4.832;2023-04-06T11:22:56;101493.00;;;8.73;77.80
77452;BME280;66537;52.370;4.832;2023-04-06T11:25:24;101487.09;;;8.64;77.85
77452;BME280;66537;52.370;4.832;2023-04-06T11:27:51;101489.66;;;8.67;77.34
77452;BME280;66537;52.370;4.832;2023-04-06T11:30:17;101479.34;;;8.64;79.14
77452;BME280;66537;52.370;4.832;2023-04-06T11:32:44;101472.53;;;8.61;80.15
77452;BME280;66537;52.370;4.832;2023-04-06T11:35:20;101467.16;;;8.78;80.87
77452;BME280;66537;52.370;4.832;2023-04-06T11:37:46;101473.94;;;8.88;80.95
77452;BME280;66537;52.370;4.832;2023-04-06T11:40:11;101474.63;;;9.03;80.77
77452;BME280;66537;52.370;4.832;2023-04-06T11:42:36;101475.59;;;8.90;79.77
77452;BME280;66537;52.370;4.832;2023-04-06T11:45:02;101463.50;;;8.97;80.89
77452;BME280;66537;52.370;4.832;2023-04-06T11:47:29;101464.63;;;8.75;81.02
77452;BME280;66537;52.370;4.832;2023-04-06T11:49:55;101457.72;;;8.75;82.12
77452;BME280;66537;52.370;4.832;2023-04-06T11:52:25;101453.25;;;8.91;82.81
77452;BME280;66537;52.370;4.832;2023-04-06T11:54:52;101448.38;;;8.68;82.37
77452;BME280;66537;52.370;4.832;2023-04-06T11:57:19;101449.16;;;8.73;82.00
77452;BME280;66537;52.370;4.832;2023-04-06T11:59:45;101449.28;;;8.63;83.02
77452;BME280;66537;52.370;4.832;2023-04-06T12:02:10;101450.13;;;8.65;83.22
77452;BME280;66537;52.370;4.832;2023-04-06T12:04:36;101457.72;;;8.75;82.66
77452;BME280;66537;52.370;4.832;2023-04-06T12:07:03;101448.38;;;8.67;83.07
77452;BME280;66537;52.370;4.832;2023-04-06T12:09:29;101455.31;;;8.60;82.86
77452;BME280;66537;52.370;4.832;2023-04-06T12:11:54;101447.78;;;8.44;83.45
77452;BME280;66537;52.370;4.832;2023-04-06T12:14:20;101445.19;;;8.42;83.65
77452;BME280;66537;52.370;4.832;2023-04-06T12:16:46;101448.78;;;8.29;83.49
77452;BME280;66537;52.370;4.832;2023-04-06T12:19:11;101443.50;;;8.38;85.91
77452;BME280;66537;52.370;4.832;2023-04-06T12:21:36;101441.69;;;8.51;84.75
77452;BME280;66537;52.370;4.832;2023-04-06T12:24:03;101445.06;;;8.56;84.83
77452;BME280;66537;52.370;4.832;2023-04-06T12:26:29;101434.75;;;8.54;85.26
77452;BME280;66537;52.370;4.832;2023-04-06T12:28:55;101434.72;;;8.59;85.70
77452;BME280;66537;52.370;4.832;2023-04-06T12:31:22;101437.31;;;8.57;85.23
77452;BME280;66537;52.370;4.832;2023-04-06T12:33:49;101430.31;;;8.68;85.07
77452;BME280;66537;52.370;4.832;2023-04-06T12:36:16;101431.19;;;8.66;85.28
77452;BME280;66537;52.370;4.832;2023-04-06T12:38:44;101424.56;;;8.45;85.16
77452;BME280;66537;52.370;4.832;2023-04-06T12:41:11;101422.75;;;8.50;85.62
77452;BME280;66537;52.370;4.832;2023-04-06T12:43:36;101421.91;;;8.51;85.18
77452;BME280;66537;52.370;4.832;2023-04-06T12:46:01;101428.84;;;8.48;84.87
77452;BME280;66537;52.370;4.832;2023-04-06T12:48:27;101421.94;;;8.48;85.87
77452;BME280;66537;52.370;4.832;2023-04-06T12:51:00;101415.00;;;8.52;85.88
77452;BME280;66537;52.370;4.832;2023-04-06T12:53:26;101423.63;;;8.51;85.10
77452;BME280;66537;52.370;4.832;2023-04-06T12:55:54;101418.34;;;8.60;86.42
77452;BME280;66537;52.370;4.832;2023-04-06T12:58:20;101414.94;;;8.59;85.12